FOON/MVB METAR and TAF weather

Enter ICAO airport designator
Station Type Date Time Source
FOON METAR 2018/09/21 20:00 UTC NOAA

FOON 212000Z 18008KT 150V210 9999 SCT008 FEW020CB 26/22 Q1012


Station Type Date Time Source
FOON Decoded METAR 2018/09/21 20:00 UTC NOAA

Franceville / Mvengue, Gabon (FOON) 01-39S 013-26E
Sep 21, 2018 - 04:00 PM EDT / 2018.09.21 2000 UTC
Wind: from the S (180 degrees) at 9 MPH (8 KT) (direction variable):0
Visibility: greater than 7 mile(s):0
Sky conditions: partly cloudy
Weather: Cumulonimbus clouds observed
Temperature: 78 F (26 C)
Dew Point: 71 F (22 C)
Relative Humidity: 78%
Pressure (altimeter): 29.88 in. Hg (1012 hPa)
ob: FOON 212000Z 18008KT 150V210 9999 SCT008 FEW020CB 26/22 Q1012
cycle: 20

Station Type Date Time Source
FOON TAF 2012/02/17 18:21 UTC NOAA

TAF TAF FOON 151600Z 1518/1618 20004KT 9999 BKN006
TEMPO 1603/1607 0200 FG OVC002
BECMG 1612/1614 TS SCT015 FEW020CB BKN030


Example: see airport list